Time;durP1;ratioP1;P1;durP2;ratioP2;P2;SDS_P1;SDS_P2;PMS_P1;PMS_P2;Temp;Humidity;BMP_temperature;BMP_pressure;BME280_temperature;BME280_humidity;BME280_pressure;Samples;Min_cycle;Max_cycle;Signal;HPM_P1;HPM_P2
2023/09/06 00:01:45;;;;;;;;;;;17.60;99.90;;;;;;4991755;28;19914;-67
2023/09/06 00:04:11;;;;;;;;;;;17.60;99.90;;;;;;5009970;28;19997;-68
2023/09/06 00:06:37;;;;;;;;;;;17.60;99.90;;;;;;4994861;28;19909;-68
2023/09/06 00:09:03;;;;;;;;;;;17.60;99.90;;;;;;4992105;28;19959;-68
2023/09/06 00:11:29;;;;;;;;;;;17.60;99.90;;;;;;5010617;28;19959;-68
2023/09/06 00:13:55;;;;;;;;;;;17.60;99.90;;;;;;5008106;28;19909;-68
2023/09/06 00:16:20;;;;;;;;;;;17.50;99.90;;;;;;5005766;28;19923;-69
2023/09/06 00:18:46;;;;;;;;;;;17.50;99.90;;;;;;4993778;28;20335;-68
2023/09/06 00:21:11;;;;;;;;;;;17.50;99.90;;;;;;5009883;28;20367;-67
2023/09/06 00:23:37;;;;;;;;;;;17.40;99.90;;;;;;5007254;28;19967;-69
2023/09/06 00:26:03;;;;;;;;;;;17.40;99.90;;;;;;4991604;28;20089;-69
2023/09/06 00:28:28;;;;;;;;;;;17.40;99.90;;;;;;5004191;28;19982;-67
2023/09/06 00:30:57;;;;;;;;;;;17.30;99.90;;;;;;4993387;28;19964;-68
2023/09/06 00:33:23;;;;;;;;;;;17.30;99.90;;;;;;5006921;28;20407;-69
2023/09/06 00:35:49;;;;;;;;;;;17.20;99.90;;;;;;5009882;28;19916;-69
2023/09/06 00:38:15;;;;;;;;;;;17.20;99.90;;;;;;5006921;28;19913;-69
2023/09/06 00:40:41;;;;;;;;;;;17.20;99.90;;;;;;5006375;28;19912;-69
2023/09/06 00:43:07;;;;;;;;;;;17.20;99.90;;;;;;5010854;28;19908;-69
2023/09/06 00:45:44;;;;;;;;;;;17.10;99.90;;;;;;5006776;28;19941;-69
2023/09/06 00:48:10;;;;;;;;;;;17.10;99.90;;;;;;5003410;28;20365;-69
2023/09/06 00:50:36;;;;;;;;;;;17.10;99.90;;;;;;5011580;28;19909;-69
2023/09/06 00:53:05;;;;;;;;;;;17.10;99.90;;;;;;5009605;28;20365;-69
2023/09/06 00:55:31;;;;;;;;;;;17.10;99.90;;;;;;5010459;28;19996;-69
2023/09/06 00:57:56;;;;;;;;;;;17.10;99.90;;;;;;4986345;28;20442;-68
2023/09/06 01:00:25;;;;;;;;;;;17.00;99.90;;;;;;5011342;28;19909;-69
2023/09/06 01:02:50;;;;;;;;;;;17.00;99.90;;;;;;5014645;28;20658;-68
2023/09/06 01:05:16;;;;;;;;;;;16.90;99.90;;;;;;5004777;28;20254;-69
2023/09/06 01:07:53;;;;;;;;;;;16.90;99.90;;;;;;5010616;28;20252;-69
2023/09/06 01:10:19;;;;;;;;;;;16.90;99.90;;;;;;5004625;28;19924;-69
2023/09/06 01:12:44;;;;;;;;;;;16.90;99.90;;;;;;5011103;28;19913;-67
2023/09/06 01:15:13;;;;;;;;;;;16.80;99.90;;;;;;5008335;28;19905;-69
2023/09/06 01:17:41;;;;;;;;;;;16.80;99.90;;;;;;5007641;28;19909;-68
2023/09/06 01:20:26;;;;;;;;;;;16.80;99.90;;;;;;5004958;28;19912;-69
2023/09/06 01:22:56;;;;;;;;;;;16.80;99.90;;;;;;4994326;28;19916;-68
2023/09/06 01:25:21;;;;;;;;;;;16.70;99.90;;;;;;5017309;28;19996;-68
2023/09/06 01:27:47;;;;;;;;;;;16.70;99.90;;;;;;5007115;28;20024;-69
2023/09/06 01:30:12;;;;;;;;;;;16.60;99.90;;;;;;5016339;28;19909;-68
2023/09/06 01:32:39;;;;;;;;;;;16.60;99.90;;;;;;5014917;28;20345;-69
2023/09/06 01:35:07;;;;;;;;;;;16.60;99.90;;;;;;5015223;28;19909;-68
2023/09/06 01:37:35;;;;;;;;;;;16.60;99.90;;;;;;5008257;28;19913;-69
2023/09/06 01:40:00;;;;;;;;;;;16.60;99.90;;;;;;5012160;28;19939;-69
2023/09/06 01:42:26;;;;;;;;;;;16.60;99.90;;;;;;5019401;28;19936;-67
2023/09/06 01:44:53;;;;;;;;;;;16.60;99.90;;;;;;4994182;28;19959;-69
2023/09/06 01:47:18;;;;;;;;;;;16.60;99.90;;;;;;5010340;28;19953;-69
2023/09/06 01:49:45;;;;;;;;;;;16.60;99.90;;;;;;5010221;28;19971;-69
2023/09/06 01:52:10;;;;;;;;;;;16.60;99.90;;;;;;4996612;28;19992;-69
2023/09/06 01:54:36;;;;;;;;;;;16.50;99.90;;;;;;5011861;28;19911;-69
2023/09/06 01:57:01;;;;;;;;;;;16.50;99.90;;;;;;5013712;28;19974;-68
2023/09/06 01:59:27;;;;;;;;;;;16.50;99.90;;;;;;5007933;28;19963;-67
2023/09/06 02:01:56;;;;;;;;;;;16.40;99.90;;;;;;5015171;28;20272;-69
2023/09/06 02:04:21;;;;;;;;;;;16.40;99.90;;;;;;4996719;28;19905;-68
2023/09/06 02:06:47;;;;;;;;;;;16.40;99.90;;;;;;5014337;28;20407;-69
2023/09/06 02:09:13;;;;;;;;;;;16.40;99.90;;;;;;5010067;28;19988;-69
2023/09/06 02:11:38;;;;;;;;;;;16.40;99.90;;;;;;5014154;28;19909;-69
2023/09/06 02:14:04;;;;;;;;;;;16.40;99.90;;;;;;5012263;28;19920;-69
2023/09/06 02:16:30;;;;;;;;;;;16.40;99.90;;;;;;5009472;28;20631;-67
2023/09/06 02:18:55;;;;;;;;;;;16.30;99.90;;;;;;4994845;28;19936;-67
2023/09/06 02:21:21;;;;;;;;;;;16.30;99.90;;;;;;5010175;28;19905;-68
2023/09/06 02:23:46;;;;;;;;;;;16.30;99.90;;;;;;5011445;28;20316;-69
2023/09/06 02:26:12;;;;;;;;;;;16.30;99.90;;;;;;5014048;28;19916;-69
2023/09/06 02:28:37;;;;;;;;;;;16.20;99.90;;;;;;5008580;28;19972;-69
2023/09/06 02:31:04;;;;;;;;;;;16.20;99.90;;;;;;5009306;28;20012;-69
2023/09/06 02:33:29;;;;;;;;;;;16.20;99.90;;;;;;5011657;28;19917;-69
2023/09/06 02:35:55;;;;;;;;;;;16.10;99.90;;;;;;5015174;28;20315;-68
2023/09/06 02:38:20;;;;;;;;;;;16.20;99.90;;;;;;5010383;28;19916;-69
2023/09/06 02:40:46;;;;;;;;;;;16.10;99.90;;;;;;5006146;28;20462;-69
2023/09/06 02:43:13;;;;;;;;;;;16.10;99.90;;;;;;4994695;28;20267;-69
2023/09/06 02:45:39;;;;;;;;;;;16.10;99.90;;;;;;5009570;28;19909;-69
2023/09/06 02:48:12;;;;;;;;;;;16.00;99.90;;;;;;5012911;28;20067;-68
2023/09/06 02:50:39;;;;;;;;;;;16.00;99.90;;;;;;5012153;28;19913;-69
2023/09/06 02:53:15;;;;;;;;;;;15.90;99.90;;;;;;5013097;28;20386;-68
2023/09/06 02:55:43;;;;;;;;;;;15.90;99.90;;;;;;5010966;28;20363;-68
2023/09/06 02:58:09;;;;;;;;;;;15.90;99.90;;;;;;5007759;28;19912;-69
2023/09/06 03:00:40;;;;;;;;;;;15.90;99.90;;;;;;5008626;28;19908;-68
2023/09/06 03:03:05;;;;;;;;;;;15.90;99.90;;;;;;5018917;28;19905;-69
2023/09/06 03:05:31;;;;;;;;;;;15.80;99.90;;;;;;5012253;28;19912;-69
2023/09/06 03:07:57;;;;;;;;;;;15.80;99.90;;;;;;4996590;28;20375;-68
2023/09/06 03:10:23;;;;;;;;;;;15.80;99.90;;;;;;5016324;28;19905;-68
2023/09/06 03:12:55;;;;;;;;;;;15.80;99.90;;;;;;5012767;28;19914;-69
2023/09/06 03:15:28;;;;;;;;;;;15.70;99.90;;;;;;5008544;28;19916;-68
2023/09/06 03:17:54;;;;;;;;;;;15.60;99.90;;;;;;4991046;28;19909;-68
2023/09/06 03:20:31;;;;;;;;;;;15.60;99.90;;;;;;5009179;28;20244;-69
2023/09/06 03:22:58;;;;;;;;;;;15.60;99.90;;;;;;4991118;28;19959;-68
2023/09/06 03:25:26;;;;;;;;;;;15.60;99.90;;;;;;4993316;28;19913;-68
2023/09/06 03:27:59;;;;;;;;;;;15.50;99.90;;;;;;5005124;28;19967;-69
2023/09/06 03:30:31;;;;;;;;;;;15.50;99.90;;;;;;4991800;28;19995;-68
2023/09/06 03:32:58;;;;;;;;;;;15.50;99.90;;;;;;4990640;28;20371;-69
2023/09/06 03:35:23;;;;;;;;;;;15.40;99.90;;;;;;5011729;28;19921;-68
2023/09/06 03:37:52;;;;;;;;;;;15.40;99.90;;;;;;5004037;28;20351;-68
2023/09/06 03:40:25;;;;;;;;;;;15.40;99.90;;;;;;4992085;28;20268;-69
2023/09/06 03:42:54;;;;;;;;;;;15.30;99.90;;;;;;5006571;28;20551;-68
2023/09/06 03:45:24;;;;;;;;;;;15.40;99.90;;;;;;5008487;28;19913;-69
2023/09/06 03:47:53;;;;;;;;;;;15.30;99.90;;;;;;5008499;28;20314;-68
2023/09/06 03:50:20;;;;;;;;;;;15.30;99.90;;;;;;5008691;28;21302;-68
2023/09/06 03:52:45;;;;;;;;;;;15.30;99.90;;;;;;5011791;28;19921;-69
2023/09/06 03:55:11;;;;;;;;;;;15.30;99.90;;;;;;4996327;28;19931;-68
2023/09/06 03:57:37;;;;;;;;;;;15.30;99.90;;;;;;5007696;28;19917;-68
2023/09/06 04:00:26;;;;;;;;;;;15.20;99.90;;;;;;5010545;28;19916;-67
2023/09/06 04:02:49;;;;;;;;;;;15.10;99.90;;;;;;5006883;28;19913;-68
2023/09/06 04:05:15;;;;;;;;;;;15.10;99.90;;;;;;5011224;28;19920;-68
2023/09/06 04:07:41;;;;;;;;;;;15.10;99.90;;;;;;4989714;28;20323;-68
2023/09/06 04:10:16;;;;;;;;;;;15.00;99.90;;;;;;4992061;28;20046;-68
2023/09/06 04:12:44;;;;;;;;;;;15.00;99.90;;;;;;5012578;28;19921;-69
2023/09/06 04:15:13;;;;;;;;;;;15.10;99.90;;;;;;5004312;28;19914;-68
2023/09/06 04:17:40;;;;;;;;;;;15.10;99.90;;;;;;5013792;28;19916;-69
2023/09/06 04:20:19;;;;;;;;;;;15.00;99.90;;;;;;5009454;28;19916;-67
2023/09/06 04:22:45;;;;;;;;;;;15.00;99.90;;;;;;5011225;28;19944;-67
2023/09/06 04:25:11;;;;;;;;;;;15.00;99.90;;;;;;5011757;28;20365;-73
2023/09/06 04:27:38;;;;;;;;;;;15.00;99.90;;;;;;5011562;28;19912;-74
2023/09/06 04:30:03;;;;;;;;;;;15.10;99.90;;;;;;5011594;28;19966;-74
2023/09/06 04:32:29;;;;;;;;;;;15.00;99.90;;;;;;5008888;28;19916;-74
2023/09/06 04:34:55;;;;;;;;;;;15.10;99.90;;;;;;5013106;28;20134;-73
2023/09/06 04:37:20;;;;;;;;;;;15.10;99.90;;;;;;5012714;28;19917;-73
2023/09/06 04:39:46;;;;;;;;;;;15.20;99.90;;;;;;5010709;28;19967;-73
2023/09/06 04:42:11;;;;;;;;;;;15.20;99.90;;;;;;4991155;28;20343;-73
2023/09/06 04:44:37;;;;;;;;;;;15.30;99.90;;;;;;4994962;28;19906;-74
2023/09/06 04:47:02;;;;;;;;;;;15.40;99.90;;;;;;4992693;28;19999;-74
2023/09/06 04:49:28;;;;;;;;;;;15.40;99.90;;;;;;5005358;28;19912;-73
2023/09/06 04:51:53;;;;;;;;;;;15.50;99.90;;;;;;4991109;28;19916;-72
2023/09/06 04:54:19;;;;;;;;;;;15.50;99.90;;;;;;4989789;28;19913;-72
2023/09/06 04:56:45;;;;;;;;;;;15.60;99.90;;;;;;5009965;28;20046;-73
2023/09/06 04:59:11;;;;;;;;;;;15.70;99.90;;;;;;5009207;28;19908;-74
2023/09/06 05:01:37;;;;;;;;;;;15.80;99.90;;;;;;5014217;28;19909;-72
2023/09/06 05:04:03;;;;;;;;;;;16.00;99.90;;;;;;5015204;28;19913;-71
2023/09/06 05:06:28;;;;;;;;;;;16.20;99.90;;;;;;4997202;28;20269;-71
2023/09/06 05:08:54;;;;;;;;;;;16.50;99.90;;;;;;5014337;28;19913;-70
2023/09/06 05:11:20;;;;;;;;;;;16.80;99.90;;;;;;5016502;28;19913;-75
2023/09/06 05:13:46;;;;;;;;;;;17.10;99.90;;;;;;4992797;28;19913;-73
2023/09/06 05:16:11;;;;;;;;;;;17.30;99.90;;;;;;5013270;28;20336;-73
2023/09/06 05:18:37;;;;;;;;;;;17.50;99.90;;;;;;5014716;28;19912;-74
2023/09/06 05:21:04;;;;;;;;;;;17.80;99.90;;;;;;5020980;28;19909;-74
2023/09/06 05:23:32;;;;;;;;;;;18.00;99.90;;;;;;5018009;28;19909;-74
2023/09/06 05:25:58;;;;;;;;;;;18.20;99.90;;;;;;5014130;28;19918;-74
2023/09/06 05:28:24;;;;;;;;;;;18.40;99.90;;;;;;5015674;28;19917;-74
2023/09/06 05:30:49;;;;;;;;;;;18.60;99.90;;;;;;5017192;28;20071;-73
2023/09/06 05:33:15;;;;;;;;;;;18.70;99.90;;;;;;5016966;28;19921;-74
2023/09/06 05:35:41;;;;;;;;;;;18.90;99.90;;;;;;5017432;28;19912;-74
2023/09/06 05:38:09;;;;;;;;;;;19.50;99.90;;;;;;5012365;28;20425;-74
2023/09/06 05:40:35;;;;;;;;;;;19.80;99.90;;;;;;4993420;28;19909;-74
2023/09/06 05:43:01;;;;;;;;;;;19.90;99.90;;;;;;4999088;28;20312;-73
2023/09/06 05:45:28;;;;;;;;;;;19.90;99.90;;;;;;5012961;28;19983;-74
2023/09/06 05:47:54;;;;;;;;;;;20.10;99.90;;;;;;5018527;28;19909;-73
2023/09/06 05:50:20;;;;;;;;;;;20.30;99.90;;;;;;5015039;28;19913;-73
2023/09/06 05:52:46;;;;;;;;;;;20.20;99.90;;;;;;5012411;28;19920;-73
2023/09/06 05:55:12;;;;;;;;;;;20.80;99.90;;;;;;5017912;28;19917;-73
2023/09/06 05:57:37;;;;;;;;;;;21.10;99.90;;;;;;5011779;28;19910;-73
2023/09/06 06:00:06;;;;;;;;;;;21.00;99.90;;;;;;5015651;28;20399;-73
2023/09/06 06:02:32;;;;;;;;;;;21.20;99.90;;;;;;5014868;28;19909;-73
2023/09/06 06:04:58;;;;;;;;;;;21.50;99.90;;;;;;5012515;28;19909;-73
2023/09/06 06:07:23;;;;;;;;;;;21.40;99.90;;;;;;4999366;28;19905;-73
2023/09/06 06:09:49;;;;;;;;;;;21.90;99.90;;;;;;5010583;28;19913;-73
2023/09/06 06:12:15;;;;;;;;;;;22.60;99.90;;;;;;5015585;28;19920;-73
2023/09/06 06:14:41;;;;;;;;;;;22.90;99.90;;;;;;5011216;28;20351;-73
2023/09/06 06:17:09;;;;;;;;;;;23.20;99.10;;;;;;4997523;28;19967;-73
2023/09/06 06:19:34;;;;;;;;;;;23.20;98.60;;;;;;5016504;28;19913;-73
2023/09/06 06:22:03;;;;;;;;;;;23.40;98.50;;;;;;5009763;28;20417;-72
2023/09/06 06:24:29;;;;;;;;;;;23.40;98.10;;;;;;5015695;28;19905;-73
2023/09/06 06:26:55;;;;;;;;;;;24.00;97.20;;;;;;5003961;28;19916;-73
2023/09/06 06:29:22;;;;;;;;;;;23.60;98.80;;;;;;5013226;28;20233;-73
2023/09/06 06:31:47;;;;;;;;;;;23.90;97.40;;;;;;5009869;28;19952;-73
2023/09/06 06:34:14;;;;;;;;;;;24.40;97.30;;;;;;4997396;28;19971;-72
2023/09/06 06:36:40;;;;;;;;;;;24.60;95.70;;;;;;5007913;28;20361;-73
2023/09/06 06:39:10;;;;;;;;;;;24.30;96.00;;;;;;5010952;28;19917;-73
2023/09/06 06:41:36;;;;;;;;;;;24.60;95.50;;;;;;5014630;28;20607;-73
2023/09/06 06:44:01;;;;;;;;;;;24.50;95.40;;;;;;5011948;28;19905;-73
2023/09/06 06:46:28;;;;;;;;;;;25.40;94.90;;;;;;4993173;28;19912;-75
2023/09/06 06:48:54;;;;;;;;;;;27.10;93.20;;;;;;5017047;28;19909;-75
2023/09/06 06:51:20;;;;;;;;;;;29.10;90.30;;;;;;5015244;28;20007;-75
2023/09/06 06:53:46;;;;;;;;;;;29.30;86.30;;;;;;4987438;28;19913;-75
2023/09/06 06:56:11;;;;;;;;;;;29.40;85.00;;;;;;5013693;28;20279;-75
2023/09/06 06:58:37;;;;;;;;;;;28.40;84.80;;;;;;4994055;28;19909;-75
2023/09/06 07:01:03;;;;;;;;;;;27.90;85.30;;;;;;5015690;28;19905;-75
2023/09/06 07:03:30;;;;;;;;;;;28.90;85.00;;;;;;5011925;28;19955;-75
2023/09/06 07:05:56;;;;;;;;;;;28.90;83.20;;;;;;5008678;28;19909;-75
2023/09/06 07:08:26;;;;;;;;;;;28.10;83.00;;;;;;5014589;28;19905;-74
2023/09/06 07:10:51;;;;;;;;;;;28.00;83.50;;;;;;5013912;28;20080;-75
2023/09/06 07:13:17;;;;;;;;;;;27.90;85.00;;;;;;5009986;28;19910;-75
2023/09/06 07:15:42;;;;;;;;;;;29.20;82.70;;;;;;5012060;28;20314;-75
2023/09/06 07:18:09;;;;;;;;;;;30.00;80.10;;;;;;5013020;28;19912;-75
2023/09/06 07:20:35;;;;;;;;;;;30.90;78.80;;;;;;4996256;28;20360;-76
2023/09/06 07:23:00;;;;;;;;;;;31.60;76.90;;;;;;4992726;28;19914;-75
2023/09/06 07:25:27;;;;;;;;;;;31.50;74.70;;;;;;5011452;28;19909;-75
2023/09/06 07:27:53;;;;;;;;;;;32.10;74.10;;;;;;5010069;28;19912;-76
2023/09/06 07:30:19;;;;;;;;;;;33.00;72.00;;;;;;5014484;28;19938;-76
2023/09/06 07:32:44;;;;;;;;;;;32.80;71.70;;;;;;5014292;28;19921;-75
2023/09/06 07:35:10;;;;;;;;;;;33.50;70.00;;;;;;5008972;28;19967;-76
2023/09/06 07:37:35;;;;;;;;;;;33.00;69.30;;;;;;5009565;28;20271;-75
2023/09/06 07:40:01;;;;;;;;;;;31.30;71.00;;;;;;5010931;28;20265;-75
2023/09/06 07:42:27;;;;;;;;;;;31.10;72.70;;;;;;5009184;28;20205;-75
2023/09/06 07:44:53;;;;;;;;;;;31.40;71.20;;;;;;5013117;28;20472;-74
2023/09/06 07:47:18;;;;;;;;;;;29.90;73.00;;;;;;5009377;28;19913;-74
2023/09/06 07:49:44;;;;;;;;;;;29.80;74.30;;;;;;5014404;28;19920;-75
2023/09/06 07:52:10;;;;;;;;;;;31.60;72.20;;;;;;5013537;28;20495;-75
2023/09/06 07:54:35;;;;;;;;;;;32.60;70.40;;;;;;4997114;28;20340;-75
2023/09/06 07:57:01;;;;;;;;;;;33.30;69.40;;;;;;5014900;28;19999;-74
2023/09/06 07:59:26;;;;;;;;;;;33.40;68.10;;;;;;5007062;28;19905;-74
2023/09/06 08:01:53;;;;;;;;;;;31.70;69.90;;;;;;5015624;28;19916;-74
2023/09/06 08:04:19;;;;;;;;;;;32.50;70.20;;;;;;5013272;28;20001;-74
2023/09/06 08:06:46;;;;;;;;;;;33.00;69.50;;;;;;5010901;28;19948;-75
2023/09/06 08:09:12;;;;;;;;;;;33.50;68.80;;;;;;4992137;28;19909;-75
2023/09/06 08:11:37;;;;;;;;;;;33.40;68.60;;;;;;5010128;28;20360;-76
2023/09/06 08:14:03;;;;;;;;;;;33.40;68.10;;;;;;4991732;28;19967;-75
2023/09/06 08:16:29;;;;;;;;;;;33.40;67.80;;;;;;5010499;28;19959;-74
2023/09/06 08:18:56;;;;;;;;;;;32.10;69.50;;;;;;4998272;28;19975;-75
2023/09/06 08:21:22;;;;;;;;;;;32.60;68.60;;;;;;4996476;28;19909;-74
2023/09/06 08:23:48;;;;;;;;;;;32.80;68.50;;;;;;5009201;28;20156;-74
2023/09/06 08:26:13;;;;;;;;;;;32.60;68.70;;;;;;4995622;28;20926;-74
2023/09/06 08:28:39;;;;;;;;;;;32.60;69.30;;;;;;4994258;28;19908;-75
2023/09/06 08:31:05;;;;;;;;;;;33.10;69.10;;;;;;5013164;28;20317;-74
2023/09/06 08:33:31;;;;;;;;;;;33.90;68.30;;;;;;5010485;28;19912;-76
2023/09/06 08:35:58;;;;;;;;;;;34.70;66.40;;;;;;4994202;28;19909;-74
2023/09/06 08:38:24;;;;;;;;;;;35.00;65.70;;;;;;4989660;28;20315;-74
2023/09/06 08:40:49;;;;;;;;;;;34.60;66.00;;;;;;5006949;28;19917;-75
2023/09/06 08:43:18;;;;;;;;;;;35.10;65.10;;;;;;5007084;28;20357;-75
2023/09/06 08:45:43;;;;;;;;;;;34.50;65.60;;;;;;5011062;28;19908;-75
2023/09/06 08:48:10;;;;;;;;;;;34.90;65.10;;;;;;5015190;28;20356;-74
2023/09/06 08:50:36;;;;;;;;;;;34.10;65.40;;;;;;5011109;28;19909;-74
2023/09/06 08:53:02;;;;;;;;;;;33.50;66.40;;;;;;5011249;28;19912;-74
2023/09/06 08:55:27;;;;;;;;;;;32.90;67.10;;;;;;4993699;28;19905;-74
2023/09/06 08:57:53;;;;;;;;;;;32.10;67.40;;;;;;5005878;28;19971;-75
2023/09/06 09:00:23;;;;;;;;;;;31.60;68.90;;;;;;5008903;28;19988;-74
2023/09/06 09:02:49;;;;;;;;;;;32.10;68.50;;;;;;4992855;28;19913;-75
2023/09/06 09:05:15;;;;;;;;;;;32.80;68.20;;;;;;5014009;28;19919;-74
2023/09/06 09:07:41;;;;;;;;;;;32.10;67.80;;;;;;5010811;28;20220;-75
2023/09/06 09:10:08;;;;;;;;;;;31.70;68.10;;;;;;4988681;28;19909;-75
2023/09/06 09:12:34;;;;;;;;;;;32.50;68.50;;;;;;5010071;28;19911;-74
2023/09/06 09:15:00;;;;;;;;;;;32.40;68.10;;;;;;5005761;28;20269;-75
2023/09/06 09:17:26;;;;;;;;;;;32.40;68.10;;;;;;5007936;28;19944;-75
2023/09/06 09:19:54;;;;;;;;;;;32.60;68.00;;;;;;5009654;28;19932;-75
2023/09/06 09:22:26;;;;;;;;;;;32.70;68.60;;;;;;5011627;28;19913;-75
2023/09/06 09:24:59;;;;;;;;;;;33.00;67.60;;;;;;4991786;28;20455;-74
2023/09/06 09:27:25;;;;;;;;;;;33.40;68.20;;;;;;5005270;28;19924;-75
2023/09/06 09:29:51;;;;;;;;;;;33.80;67.10;;;;;;4990188;28;19901;-75
2023/09/06 09:32:17;;;;;;;;;;;34.00;66.30;;;;;;5012441;28;19916;-75
2023/09/06 09:34:44;;;;;;;;;;;33.70;66.70;;;;;;5005850;28;19905;-75
2023/09/06 09:37:11;;;;;;;;;;;33.90;66.70;;;;;;4991274;28;19915;-75
2023/09/06 09:39:37;;;;;;;;;;;34.40;64.80;;;;;;5007123;28;20719;-74
2023/09/06 09:42:09;;;;;;;;;;;34.90;63.40;;;;;;5007770;28;19987;-74
2023/09/06 09:44:34;;;;;;;;;;;35.50;62.90;;;;;;5011953;28;20770;-74
2023/09/06 09:47:08;;;;;;;;;;;34.00;64.00;;;;;;5011227;28;20003;-74
2023/09/06 09:49:33;;;;;;;;;;;33.80;63.50;;;;;;5009406;28;19909;-74
2023/09/06 09:51:59;;;;;;;;;;;34.10;63.20;;;;;;5016430;28;19920;-75
2023/09/06 09:54:28;;;;;;;;;;;36.10;62.10;;;;;;5014517;28;19913;-75
2023/09/06 09:57:04;;;;;;;;;;;35.20;60.20;;;;;;5013784;28;19912;-74
2023/09/06 09:59:31;;;;;;;;;;;34.10;60.60;;;;;;5013650;28;19912;-74
2023/09/06 10:01:57;;;;;;;;;;;34.00;62.20;;;;;;5010906;28;19927;-75
2023/09/06 10:04:26;;;;;;;;;;;34.70;60.80;;;;;;5015818;28;20275;-74
2023/09/06 10:06:53;;;;;;;;;;;34.50;60.40;;;;;;5016946;28;20243;-74
2023/09/06 10:09:19;;;;;;;;;;;35.10;60.30;;;;;;5011669;28;19965;-75
2023/09/06 10:11:45;;;;;;;;;;;34.90;60.20;;;;;;5016322;28;20622;-75
2023/09/06 10:14:12;;;;;;;;;;;35.30;59.50;;;;;;5012900;28;19913;-75
2023/09/06 10:16:38;;;;;;;;;;;35.10;60.40;;;;;;5008291;28;19923;-75
2023/09/06 10:19:03;;;;;;;;;;;34.40;60.20;;;;;;5013990;28;19908;-75
2023/09/06 10:21:30;;;;;;;;;;;34.60;60.10;;;;;;5013760;28;19908;-75
2023/09/06 10:23:56;;;;;;;;;;;33.90;60.90;;;;;;5004376;28;20430;-75
2023/09/06 10:26:26;;;;;;;;;;;33.80;60.90;;;;;;5015313;28;19944;-75
2023/09/06 10:28:58;;;;;;;;;;;34.10;60.50;;;;;;5010034;28;19994;-76
2023/09/06 10:31:33;;;;;;;;;;;34.00;60.70;;;;;;5014786;28;19909;-75
2023/09/06 10:33:59;;;;;;;;;;;35.40;59.90;;;;;;5006938;28;20505;-76
2023/09/06 10:36:27;;;;;;;;;;;35.80;58.90;;;;;;5012732;28;19924;-74
2023/09/06 10:38:52;;;;;;;;;;;34.30;59.20;;;;;;5014464;28;19941;-75
2023/09/06 10:41:19;;;;;;;;;;;34.10;60.00;;;;;;5007164;28;19952;-74
2023/09/06 10:44:03;;;;;;;;;;;35.70;59.10;;;;;;5012144;28;20000;-74
2023/09/06 10:46:30;;;;;;;;;;;35.60;59.40;;;;;;5007626;28;19901;-74
2023/09/06 10:49:25;;;;;;;;;;;36.70;58.20;;;;;;5006144;28;19909;-74
2023/09/06 10:52:02;;;;;;;;;;;37.00;57.20;;;;;;5013533;28;19920;-73
2023/09/06 10:54:37;;;;;;;;;;;36.10;57.50;;;;;;5004051;28;19916;-73
2023/09/06 10:57:03;;;;;;;;;;;36.30;58.30;;;;;;5005533;28;19980;-74
2023/09/06 10:59:29;;;;;;;;;;;34.70;58.80;;;;;;5012529;28;19931;-74
2023/09/06 11:02:13;;;;;;;;;;;32.30;60.20;;;;;;5013592;28;19909;-74
2023/09/06 11:04:39;;;;;;;;;;;31.00;62.10;;;;;;5011224;28;20294;-73
2023/09/06 11:07:10;;;;;;;;;;;29.90;63.90;;;;;;5008721;28;19915;-74
2023/09/06 11:09:45;;;;;;;;;;;29.20;64.70;;;;;;5008857;28;19948;-74
2023/09/06 11:12:12;;;;;;;;;;;28.40;66.50;;;;;;5003196;28;19905;-73
2023/09/06 11:14:38;;;;;;;;;;;28.40;66.40;;;;;;5006953;28;19910;-73
2023/09/06 11:17:03;;;;;;;;;;;28.10;66.40;;;;;;5008509;28;19916;-74
2023/09/06 11:19:29;;;;;;;;;;;28.00;67.40;;;;;;4987708;28;20854;-74
2023/09/06 11:22:09;;;;;;;;;;;27.80;67.50;;;;;;5006805;28;19948;-74
2023/09/06 11:24:37;;;;;;;;;;;27.90;68.00;;;;;;4994034;28;19979;-74
2023/09/06 11:27:37;;;;;;;;;;;28.10;66.80;;;;;;5011096;28;20360;-74
2023/09/06 11:30:10;;;;;;;;;;;28.10;67.50;;;;;;4955941;28;20271;-74
2023/09/06 11:32:36;;;;;;;;;;;27.90;67.90;;;;;;5011357;28;20407;-75
2023/09/06 11:35:05;;;;;;;;;;;27.60;68.20;;;;;;4996166;28;19987;-73
2023/09/06 11:37:31;;;;;;;;;;;27.70;68.40;;;;;;5008608;28;19913;-65
2023/09/06 11:39:57;;;;;;;;;;;27.80;67.80;;;;;;5007255;28;19932;-75
2023/09/06 11:42:31;;;;;;;;;;;27.80;68.00;;;;;;5006853;28;20004;-74
2023/09/06 11:44:59;;;;;;;;;;;27.70;68.60;;;;;;5007417;28;20583;-75
2023/09/06 11:47:27;;;;;;;;;;;27.70;68.70;;;;;;5009550;28;19995;-75
2023/09/06 11:49:59;;;;;;;;;;;27.40;68.70;;;;;;5014385;28;19934;-74
2023/09/06 11:52:25;;;;;;;;;;;27.30;69.60;;;;;;5011236;28;19914;-74
2023/09/06 11:54:52;;;;;;;;;;;27.20;69.90;;;;;;5009790;28;19928;-75
2023/09/06 11:57:25;;;;;;;;;;;27.50;69.40;;;;;;5011602;28;20307;-74
2023/09/06 11:59:52;;;;;;;;;;;27.80;69.80;;;;;;5008484;28;19913;-74
2023/09/06 12:02:20;;;;;;;;;;;27.50;68.80;;;;;;5011555;28;20658;-74
2023/09/06 12:04:57;;;;;;;;;;;27.30;69.50;;;;;;5013799;28;20439;-74
2023/09/06 12:07:23;;;;;;;;;;;27.40;69.60;;;;;;4989879;28;19945;-74
2023/09/06 12:09:49;;;;;;;;;;;27.30;69.30;;;;;;5006990;28;19913;-75
2023/09/06 12:12:17;;;;;;;;;;;27.30;68.90;;;;;;5008296;28;19955;-75
2023/09/06 12:14:44;;;;;;;;;;;27.50;69.50;;;;;;5005613;28;19945;-75
2023/09/06 12:17:11;;;;;;;;;;;27.60;69.20;;;;;;5008422;28;19913;-75
2023/09/06 12:19:37;;;;;;;;;;;27.60;69.30;;;;;;5009319;28;19913;-74
2023/09/06 12:22:05;;;;;;;;;;;27.70;68.60;;;;;;5012483;28;20276;-74
2023/09/06 12:24:33;;;;;;;;;;;27.60;68.70;;;;;;5013422;28;19909;-75
2023/09/06 12:26:58;;;;;;;;;;;27.50;69.10;;;;;;5007763;28;20372;-74
2023/09/06 12:29:24;;;;;;;;;;;27.50;68.70;;;;;;5003569;28;19948;-75
2023/09/06 12:31:51;;;;;;;;;;;27.40;69.60;;;;;;5012713;28;21442;-74
2023/09/06 12:34:17;;;;;;;;;;;27.70;69.30;;;;;;5011422;28;20499;-74
2023/09/06 12:36:43;;;;;;;;;;;27.60;69.20;;;;;;5003909;28;19983;-74
2023/09/06 12:39:08;;;;;;;;;;;27.60;68.70;;;;;;5009415;28;19906;-73
2023/09/06 12:41:34;;;;;;;;;;;27.50;68.70;;;;;;4988715;28;19905;-74
2023/09/06 12:43:59;;;;;;;;;;;27.30;69.20;;;;;;5007291;28;19953;-74
2023/09/06 12:46:25;;;;;;;;;;;27.30;69.40;;;;;;5006232;28;19963;-75
2023/09/06 12:48:51;;;;;;;;;;;27.10;69.60;;;;;;5014096;28;20350;-74
2023/09/06 12:51:16;;;;;;;;;;;27.20;69.70;;;;;;4993789;28;19909;-75
2023/09/06 12:53:42;;;;;;;;;;;27.40;69.60;;;;;;5006797;28;19909;-75
2023/09/06 12:56:09;;;;;;;;;;;27.60;69.80;;;;;;5013057;28;19913;-75
2023/09/06 12:58:38;;;;;;;;;;;27.60;69.20;;;;;;5006927;28;19918;-74
2023/09/06 13:01:08;;;;;;;;;;;27.60;69.40;;;;;;5014248;28;19967;-74
2023/09/06 13:03:34;;;;;;;;;;;27.60;69.30;;;;;;5010992;28;20485;-74
2023/09/06 13:06:03;;;;;;;;;;;27.70;69.50;;;;;;5010109;28;19909;-75
2023/09/06 13:08:30;;;;;;;;;;;27.80;69.40;;;;;;5004707;28;20359;-75
2023/09/06 13:10:56;;;;;;;;;;;27.90;69.60;;;;;;5005934;28;20407;-75
2023/09/06 13:13:21;;;;;;;;;;;27.90;69.00;;;;;;5008630;28;19999;-74
2023/09/06 13:15:47;;;;;;;;;;;28.00;68.90;;;;;;4985356;28;20307;-74
2023/09/06 13:18:12;;;;;;;;;;;28.00;68.40;;;;;;5013337;28;20430;-75
2023/09/06 13:20:38;;;;;;;;;;;27.90;68.30;;;;;;5012343;28;19905;-74
2023/09/06 13:23:04;;;;;;;;;;;27.90;68.70;;;;;;5010614;28;20364;-75
2023/09/06 13:25:29;;;;;;;;;;;27.90;69.20;;;;;;4999686;28;19980;-75
2023/09/06 13:27:55;;;;;;;;;;;27.80;69.60;;;;;;5015799;28;19909;-75
2023/09/06 13:30:20;;;;;;;;;;;27.70;69.00;;;;;;5011023;28;19936;-76
2023/09/06 13:32:46;;;;;;;;;;;27.60;69.50;;;;;;4995760;28;19921;-75
2023/09/06 13:35:11;;;;;;;;;;;27.60;69.20;;;;;;5013614;28;19905;-76
2023/09/06 13:37:37;;;;;;;;;;;27.40;69.30;;;;;;5013015;28;19913;-76
2023/09/06 13:40:04;;;;;;;;;;;27.50;69.90;;;;;;4993760;28;19968;-75
2023/09/06 13:42:30;;;;;;;;;;;27.60;69.80;;;;;;5012701;28;19909;-74
2023/09/06 13:44:56;;;;;;;;;;;27.70;69.80;;;;;;4998762;28;19971;-74
2023/09/06 13:47:22;;;;;;;;;;;27.80;69.90;;;;;;5016085;28;19909;-75
2023/09/06 13:49:49;;;;;;;;;;;27.50;69.20;;;;;;5012836;28;19906;-75
2023/09/06 13:52:14;;;;;;;;;;;27.30;70.00;;;;;;5011872;28;20614;-75
2023/09/06 13:54:40;;;;;;;;;;;27.30;70.10;;;;;;5012365;28;20009;-75
2023/09/06 13:57:07;;;;;;;;;;;27.30;70.30;;;;;;5013594;28;19984;-74
2023/09/06 13:59:32;;;;;;;;;;;27.30;69.90;;;;;;5007991;28;20070;-75
2023/09/06 14:01:58;;;;;;;;;;;27.30;69.90;;;;;;5017338;28;20031;-75
2023/09/06 14:04:23;;;;;;;;;;;27.30;69.50;;;;;;5009965;28;19916;-76
2023/09/06 14:06:50;;;;;;;;;;;27.30;70.30;;;;;;5017072;28;19913;-75
2023/09/06 14:09:16;;;;;;;;;;;27.40;69.80;;;;;;4991471;28;20291;-75
2023/09/06 14:11:42;;;;;;;;;;;27.30;69.80;;;;;;5010614;28;19905;-73
2023/09/06 14:14:07;;;;;;;;;;;27.20;69.90;;;;;;4995047;28;19910;-73
2023/09/06 14:16:34;;;;;;;;;;;27.20;69.90;;;;;;4988733;28;20387;-73